Terminal Aerodrome Forecast
Issued by NWS

Home | Current Version | Previous Version | Text Only | Print | Product List | Glossary On
Versions: 1 2 3 4 5 6 7 8 9 10 11 12 13 14 15 16 17 18
000
FTUS43 KILX 252135 AAA
TAFCMI
TAF AMD
KCMI 252135Z 2522/2618 07012G18KT P6SM VCSH OVC011
      TEMPO 2522/2601 5SM -RA BR OVC006
     FM260100 05012KT P6SM OVC015
     FM260800 03009KT P6SM SCT015=

USA.gov is the U.S. government's official web portal to all federal, state and local government web resources and services.